createdAt,value
2023-04-05T00:02:14.066Z,102023.03
2023-04-05T00:04:51.965Z,102018.56
2023-04-05T00:07:21.346Z,102008.56
2023-04-05T00:09:47.968Z,102012.59
2023-04-05T00:12:14.419Z,102009.63
2023-04-05T00:14:41.066Z,102007.47
2023-04-05T00:17:09.469Z,102007.59
2023-04-05T00:19:38.229Z,102004.41
2023-04-05T00:22:05.304Z,102003.28
2023-04-05T00:24:33.622Z,102006.28
2023-04-05T00:27:01.021Z,101998.13
2023-04-05T00:29:27.464Z,102005.69
2023-04-05T00:31:54.054Z,102008.72
2023-04-05T00:34:20.498Z,102007.03
2023-04-05T00:36:46.982Z,102012.84
2023-04-05T00:39:13.400Z,102006.91
2023-04-05T00:41:40.299Z,102003.22
2023-04-05T00:44:07.710Z,101997.66
2023-04-05T00:46:36.562Z,102010.91
2023-04-05T00:49:04.603Z,102006.91
2023-04-05T00:51:33.585Z,101997.25
2023-04-05T00:54:02.533Z,102004.13
2023-04-05T00:56:30.423Z,102001.31
2023-04-05T00:58:57.014Z,102000.81
2023-04-05T01:01:26.293Z,101999.66
2023-04-05T01:03:55.491Z,101988.78
2023-04-05T01:06:44.567Z,101990.13
2023-04-05T01:09:24.428Z,101990.16
2023-04-05T01:11:55.695Z,101994.00
2023-04-05T01:14:22.265Z,101983.47
2023-04-05T01:16:58.117Z,101988.81
2023-04-05T01:19:29.551Z,101998.56
2023-04-05T01:22:14.194Z,101981.84
2023-04-05T01:25:06.694Z,101986.06
2023-04-05T01:27:57.626Z,101980.06
2023-04-05T01:30:35.819Z,101983.88
2023-04-05T01:33:15.858Z,101980.41
2023-04-05T01:36:01.785Z,101982.59
2023-04-05T01:38:29.332Z,101981.50
2023-04-05T01:40:56.075Z,101985.22
2023-04-05T01:43:22.550Z,101977.25
2023-04-05T01:45:49.060Z,101983.09
2023-04-05T01:48:16.086Z,101978.59
2023-04-05T01:50:43.545Z,101985.28
2023-04-05T01:53:10.475Z,101979.63
2023-04-05T01:55:36.972Z,101979.44
2023-04-05T01:58:03.891Z,101978.75
2023-04-05T02:00:30.737Z,101987.63
2023-04-05T02:02:57.222Z,101982.31
2023-04-05T02:05:23.767Z,101976.97
2023-04-05T02:07:50.222Z,101979.78
2023-04-05T02:10:18.231Z,101985.31
2023-04-05T02:12:44.767Z,101976.97
2023-04-05T02:15:12.408Z,101977.78
2023-04-05T02:17:39.845Z,101978.44
2023-04-05T02:20:12.412Z,101979.31
2023-04-05T02:22:40.258Z,101974.13
2023-04-05T02:25:10.187Z,101971.47
2023-04-05T02:27:37.968Z,101977.13
2023-04-05T02:30:05.537Z,101974.63
2023-04-05T02:32:32.078Z,101968.97
2023-04-05T02:34:58.730Z,101972.94
2023-04-05T02:37:27.328Z,101972.94
2023-04-05T02:39:54.467Z,101968.63
2023-04-05T02:42:21.028Z,101960.63
2023-04-05T02:44:52.472Z,101964.28
2023-04-05T02:47:21.674Z,101959.28
2023-04-05T02:49:53.749Z,101955.63
2023-04-05T02:52:22.216Z,101948.97
2023-04-05T02:54:49.447Z,101945.44
2023-04-05T02:57:20.360Z,101947.78
2023-04-05T02:59:55.451Z,101938.94
2023-04-05T03:02:21.885Z,101947.13
2023-04-05T03:04:53.446Z,101940.09
2023-04-05T03:07:25.685Z,101938.97
2023-04-05T03:09:53.826Z,101939.28
2023-04-05T03:12:20.859Z,101939.94
2023-04-05T03:14:47.339Z,101933.13
2023-04-05T03:17:16.731Z,101933.78
2023-04-05T03:19:48.393Z,101930.28
2023-04-05T03:22:19.989Z,101932.09
2023-04-05T03:24:46.611Z,101930.47
2023-04-05T03:27:15.316Z,101931.78
2023-04-05T03:29:59.196Z,101935.47
2023-04-05T03:32:26.105Z,101933.13
2023-04-05T03:35:00.926Z,101930.78
2023-04-05T03:37:28.361Z,101929.81
2023-04-05T03:40:00.922Z,101931.28
2023-04-05T03:42:27.381Z,101927.78
2023-04-05T03:44:54.395Z,101933.28
2023-04-05T03:47:20.955Z,101942.63
2023-04-05T03:49:47.750Z,101940.13
2023-04-05T03:52:14.129Z,101933.13
2023-04-05T03:54:44.275Z,101940.78
2023-04-05T03:57:12.533Z,101940.28
2023-04-05T03:59:41.429Z,101938.94
2023-04-05T04:02:08.453Z,101931.09
2023-04-05T04:04:35.187Z,101931.44
2023-04-05T04:07:03.221Z,101935.13
2023-04-05T04:09:30.703Z,101940.13
2023-04-05T04:12:04.586Z,101937.13
2023-04-05T04:14:32.610Z,101935.28
2023-04-05T04:17:32.090Z,101938.94
2023-04-05T04:20:17.438Z,101934.28
2023-04-05T04:23:00.872Z,101933.78
2023-04-05T04:26:06.422Z,101931.09
2023-04-05T04:28:53.345Z,101933.78
2023-04-05T04:31:40.452Z,101934.44
2023-04-05T04:34:38.130Z,101932.25
2023-04-05T04:37:18.348Z,101941.41
2023-04-05T04:40:08.952Z,101940.56
2023-04-05T04:42:54.821Z,101937.41
2023-04-05T04:45:50.096Z,101935.09
2023-04-05T04:48:28.720Z,101936.94
2023-04-05T04:51:11.009Z,101938.41
2023-04-05T04:53:37.767Z,101933.22
2023-04-05T04:56:07.833Z,101932.00
2023-04-05T04:58:34.355Z,101939.69
2023-04-05T05:01:12.249Z,101935.19
2023-04-05T05:03:38.930Z,101937.88
2023-04-05T05:06:06.234Z,101942.69
2023-04-05T05:08:34.389Z,101951.53
2023-04-05T05:11:01.139Z,101948.22
2023-04-05T05:13:28.572Z,101950.38
2023-04-05T05:15:55.077Z,101939.88
2023-04-05T05:18:24.733Z,101939.03
2023-04-05T05:20:52.226Z,101943.22
2023-04-05T05:23:18.717Z,101941.72
2023-04-05T05:25:45.189Z,101943.03
2023-04-05T05:28:13.290Z,101941.91
2023-04-05T05:30:40.053Z,101942.72
2023-04-05T05:33:07.247Z,101939.41
2023-04-05T05:35:34.613Z,101944.78
2023-04-05T05:38:02.679Z,101945.28
2023-04-05T05:40:29.306Z,101941.44
2023-04-05T05:42:56.131Z,101936.09
2023-04-05T05:45:22.571Z,101940.63
2023-04-05T05:47:48.977Z,101926.97
2023-04-05T05:50:17.090Z,101933.13
2023-04-05T05:52:43.505Z,101930.94
2023-04-05T05:55:11.044Z,101935.63
2023-04-05T05:57:38.735Z,101933.13
2023-04-05T06:00:09.691Z,101927.28
2023-04-05T06:02:39.315Z,101932.47
2023-04-05T06:05:06.194Z,101932.78
2023-04-05T06:07:36.417Z,101930.63
2023-04-05T06:10:06.688Z,101924.13
2023-04-05T06:12:33.259Z,101928.13
2023-04-05T06:15:02.046Z,101926.44
2023-04-05T06:17:28.844Z,101931.28
2023-04-05T06:19:55.508Z,101931.78
2023-04-05T06:22:23.508Z,101936.44
2023-04-05T06:24:49.895Z,101935.94
2023-04-05T06:27:16.270Z,101929.09
2023-04-05T06:29:43.032Z,101935.56
2023-04-05T06:32:09.591Z,101934.22
2023-04-05T06:34:36.488Z,101939.25
2023-04-05T06:37:03.087Z,101931.88
2023-04-05T06:39:29.678Z,101933.81
2023-04-05T06:41:56.635Z,101934.31
2023-04-05T06:44:28.154Z,101939.94
2023-04-05T06:46:54.547Z,101933.22
2023-04-05T06:49:21.397Z,101937.03
2023-04-05T06:51:47.867Z,101930.00
2023-04-05T06:54:14.318Z,101929.63
2023-04-05T06:56:40.713Z,101924.88
2023-04-05T06:59:07.494Z,101924.16
2023-04-05T07:01:34.158Z,101925.78
2023-04-05T07:04:00.897Z,101917.88
2023-04-05T07:06:28.096Z,101911.97
2023-04-05T07:08:54.587Z,101906.50
2023-04-05T07:11:21.498Z,101910.97
2023-04-05T07:13:47.925Z,101904.91
2023-04-05T07:16:14.320Z,101911.78
2023-04-05T07:18:40.743Z,101909.94
2023-04-05T07:21:07.481Z,101911.66
2023-04-05T07:23:34.013Z,101915.16
2023-04-05T07:26:04.804Z,101908.59
2023-04-05T07:28:35.874Z,101916.84
2023-04-05T07:31:04.485Z,101913.63
2023-04-05T07:33:31.128Z,101908.44
2023-04-05T07:35:58.013Z,101916.94
2023-04-05T07:38:24.697Z,101919.53
2023-04-05T07:40:51.759Z,101910.34
2023-04-05T07:43:21.964Z,101912.25
2023-04-05T07:45:48.434Z,101908.13
2023-04-05T07:48:14.845Z,101913.78
2023-04-05T07:50:42.311Z,101906.81
2023-04-05T07:53:09.125Z,101906.41
2023-04-05T07:55:38.843Z,101903.66
2023-04-05T07:58:05.401Z,101904.19
2023-04-05T08:00:31.972Z,101907.84
2023-04-05T08:03:01.819Z,101905.19
2023-04-05T08:05:29.424Z,101902.50
2023-04-05T08:07:58.010Z,101911.19
2023-04-05T08:10:25.009Z,101901.50
2023-04-05T08:12:51.389Z,101906.84
2023-04-05T08:15:17.871Z,101905.06
2023-04-05T08:17:44.343Z,101910.47
2023-04-05T08:20:11.314Z,101911.91
2023-04-05T08:22:37.869Z,101904.75
2023-04-05T08:25:04.499Z,101908.16
2023-04-05T08:27:30.882Z,101908.16
2023-04-05T08:29:57.686Z,101904.47
2023-04-05T08:32:24.096Z,101902.88
2023-04-05T08:34:50.487Z,101900.19
2023-04-05T08:37:16.928Z,101895.06
2023-04-05T08:39:43.343Z,101887.78
2023-04-05T08:42:18.802Z,101892.16
2023-04-05T08:44:51.413Z,101893.41
2023-04-05T08:47:23.272Z,101886.19
2023-04-05T08:49:49.870Z,101884.91
2023-04-05T08:52:16.266Z,101893.00
2023-04-05T08:54:43.167Z,101889.50
2023-04-05T08:57:10.455Z,101889.31
2023-04-05T08:59:40.692Z,101889.91
2023-04-05T09:02:18.778Z,101890.31
2023-04-05T09:04:46.725Z,101893.81
2023-04-05T09:07:14.362Z,101894.22
2023-04-05T09:09:46.637Z,101889.56
2023-04-05T09:12:14.169Z,101890.16
2023-04-05T09:14:41.693Z,101887.34
2023-04-05T09:17:09.712Z,101893.84
2023-04-05T09:19:36.607Z,101892.00
2023-04-05T09:22:08.028Z,101886.03
2023-04-05T09:24:43.610Z,101884.91
2023-04-05T09:27:12.180Z,101874.22
2023-04-05T09:29:40.877Z,101878.28
2023-04-05T09:32:10.678Z,101872.97
2023-04-05T09:34:38.171Z,101875.91
2023-04-05T09:37:15.702Z,101878.91
2023-04-05T09:39:43.386Z,101880.34
2023-04-05T09:42:15.342Z,101868.41
2023-04-05T09:45:05.174Z,101865.63
2023-04-05T09:47:37.830Z,101872.44
2023-04-05T09:50:16.411Z,101876.75
2023-04-05T09:52:43.806Z,101872.31
2023-04-05T09:55:11.153Z,101873.06
2023-04-05T09:57:39.389Z,101865.84
2023-04-05T10:00:17.309Z,101868.19
2023-04-05T10:02:44.003Z,101868.41
2023-04-05T10:05:15.768Z,101870.44
2023-04-05T10:07:43.168Z,101863.53
2023-04-05T10:10:12.389Z,101859.75
2023-04-05T10:12:41.382Z,101859.53
2023-04-05T10:15:09.205Z,101864.28
2023-04-05T10:17:53.377Z,101856.81
2023-04-05T10:20:24.072Z,101857.41
2023-04-05T10:23:01.335Z,101843.44
2023-04-05T10:25:53.979Z,101856.22
2023-04-05T10:28:37.351Z,101844.00
2023-04-05T10:31:27.047Z,101837.00
2023-04-05T10:34:10.044Z,101847.41
2023-04-05T10:36:49.535Z,101840.47
2023-04-05T10:39:24.109Z,101834.88
2023-04-05T10:41:59.644Z,101831.56
2023-04-05T10:44:27.056Z,101831.56
2023-04-05T10:46:57.061Z,101834.41
2023-04-05T10:49:34.487Z,101827.38
2023-04-05T10:52:02.196Z,101828.94
2023-04-05T10:54:32.315Z,101817.84
2023-04-05T10:57:01.310Z,101823.69
2023-04-05T10:59:29.454Z,101825.22
2023-04-05T11:01:57.599Z,101822.75
2023-04-05T11:04:24.194Z,101820.88
2023-04-05T11:07:13.491Z,101815.47
2023-04-05T11:10:04.616Z,101816.59
2023-04-05T11:12:57.184Z,101811.53
2023-04-05T11:15:33.120Z,101821.97
2023-04-05T11:18:21.937Z,101810.72
2023-04-05T11:20:51.744Z,101810.84
2023-04-05T11:23:20.991Z,101816.97
2023-04-05T11:25:55.069Z,101805.66
2023-04-05T11:28:41.771Z,101805.25
2023-04-05T11:31:18.028Z,101801.41
2023-04-05T11:33:47.689Z,101799.50
2023-04-05T11:36:42.067Z,101792.94
2023-04-05T11:39:23.858Z,101792.94
2023-04-05T11:41:58.881Z,101787.34
2023-04-05T11:44:25.555Z,101783.63
2023-04-05T11:46:55.811Z,101786.78
2023-04-05T11:49:24.411Z,101779.41
2023-04-05T11:51:53.147Z,101768.69
2023-04-05T11:54:32.774Z,101773.50
2023-04-05T11:56:59.281Z,101772.63
2023-04-05T11:59:29.968Z,101770.22
2023-04-05T12:02:06.033Z,101763.63
2023-04-05T12:04:33.738Z,101762.72
2023-04-05T12:07:19.204Z,101761.00
2023-04-05T12:10:01.509Z,101762.41
2023-04-05T12:12:38.275Z,101761.50
2023-04-05T12:15:08.315Z,101755.88
2023-04-05T12:17:41.268Z,101754.41
2023-04-05T12:20:08.574Z,101760.44
2023-04-05T12:22:36.924Z,101760.91
2023-04-05T12:25:04.334Z,101741.75
2023-04-05T12:27:30.870Z,101747.69
2023-04-05T12:30:21.294Z,101741.25
2023-04-05T12:32:51.049Z,101740.84
2023-04-05T12:35:20.987Z,101736.31
2023-04-05T12:37:49.740Z,101746.38
2023-04-05T12:40:21.974Z,101742.28
2023-04-05T12:42:48.453Z,101739.34
2023-04-05T12:45:15.066Z,101735.19
2023-04-05T12:47:58.806Z,101725.94
2023-04-05T12:50:30.967Z,101722.31
2023-04-05T12:52:59.329Z,101714.00
2023-04-05T12:55:27.591Z,101713.94
2023-04-05T12:57:57.134Z,101702.81
2023-04-05T13:00:27.801Z,101704.88
2023-04-05T13:02:55.831Z,101713.69
2023-04-05T13:05:40.928Z,101700.09
2023-04-05T13:08:08.112Z,101697.97
2023-04-05T13:10:34.666Z,101694.44
2023-04-05T13:13:01.951Z,101692.69
2023-04-05T13:15:28.582Z,101698.41
2023-04-05T13:17:55.404Z,101688.78
2023-04-05T13:20:21.993Z,101689.59
2023-04-05T13:22:48.594Z,101693.63
2023-04-05T13:25:16.043Z,101680.28
2023-04-05T13:27:42.990Z,101671.63
2023-04-05T13:30:10.090Z,101679.72
2023-04-05T13:32:36.910Z,101670.19
2023-04-05T13:35:03.701Z,101677.66
2023-04-05T13:37:30.128Z,101667.38
2023-04-05T13:39:56.596Z,101668.06
2023-04-05T13:42:23.958Z,101664.34
2023-04-05T13:44:50.528Z,101661.38
2023-04-05T13:47:17.031Z,101662.03
2023-04-05T13:49:43.851Z,101653.94
2023-04-05T13:52:10.357Z,101650.38
2023-04-05T13:54:37.277Z,101655.56
2023-04-05T13:57:04.315Z,101652.44
2023-04-05T13:59:30.987Z,101648.56
2023-04-05T14:01:57.549Z,101642.31
2023-04-05T14:04:24.172Z,101657.34
2023-04-05T14:06:50.549Z,101653.03
2023-04-05T14:09:16.981Z,101645.59
2023-04-05T14:11:43.621Z,101646.97
2023-04-05T14:14:10.256Z,101646.66
2023-04-05T14:16:38.232Z,101635.94
2023-04-05T14:19:04.885Z,101629.97
2023-04-05T14:21:31.652Z,101630.28
2023-04-05T14:23:58.090Z,101631.09
2023-04-05T14:26:26.191Z,101619.38
2023-04-05T14:28:55.855Z,101615.69
2023-04-05T14:31:23.176Z,101617.53
2023-04-05T14:33:49.671Z,101617.91
2023-04-05T14:36:16.089Z,101617.03
2023-04-05T14:38:42.566Z,101614.25
2023-04-05T14:41:10.204Z,101618.22
2023-04-05T14:43:38.413Z,101611.59
2023-04-05T14:46:05.324Z,101618.34
2023-04-05T14:48:33.831Z,101612.09
2023-04-05T14:51:00.337Z,101610.38
2023-04-05T14:53:26.925Z,101608.72
2023-04-05T14:55:53.418Z,101598.41
2023-04-05T14:58:19.833Z,101607.38
2023-04-05T15:00:48.954Z,101598.66
2023-04-05T15:03:16.056Z,101595.03
2023-04-05T15:05:42.890Z,101599.25
2023-04-05T15:08:09.527Z,101591.75
2023-04-05T15:10:36.103Z,101599.22
2023-04-05T15:13:02.641Z,101600.38
2023-04-05T15:15:29.127Z,101604.66
2023-04-05T15:17:55.595Z,101604.16
2023-04-05T15:20:22.088Z,101599.78
2023-04-05T15:22:48.722Z,101597.06
2023-04-05T15:25:15.542Z,101592.78
2023-04-05T15:27:42.058Z,101591.09
2023-04-05T15:30:09.115Z,101588.59
2023-04-05T15:32:35.965Z,101598.31
2023-04-05T15:35:04.190Z,101590.66
2023-04-05T15:37:30.934Z,101588.03
2023-04-05T15:39:57.382Z,101578.09
2023-04-05T15:42:23.872Z,101581.44
2023-04-05T15:44:51.056Z,101574.19
2023-04-05T15:47:18.332Z,101581.69
2023-04-05T15:49:44.745Z,101586.63
2023-04-05T15:52:11.648Z,101576.38
2023-04-05T15:54:38.444Z,101588.78
2023-04-05T15:57:04.902Z,101589.44
2023-04-05T15:59:31.375Z,101579.81
2023-04-05T16:01:57.972Z,101579.94
2023-04-05T16:04:24.812Z,101577.88
2023-04-05T16:06:51.251Z,101582.13
2023-04-05T16:09:17.698Z,101576.75
2023-04-05T16:11:44.132Z,101567.06
2023-04-05T16:14:11.678Z,101566.31
2023-04-05T16:16:45.949Z,101568.59
2023-04-05T16:19:19.954Z,101570.06
2023-04-05T16:21:46.459Z,101574.13
2023-04-05T16:24:12.931Z,101567.38
2023-04-05T16:26:39.548Z,101569.72
2023-04-05T16:29:06.894Z,101570.44
2023-04-05T16:31:33.939Z,101564.09
2023-04-05T16:34:00.836Z,101561.47
2023-04-05T16:36:27.785Z,101554.66
2023-04-05T16:38:54.279Z,101554.56
2023-04-05T16:41:20.811Z,101563.59
2023-04-05T16:43:47.227Z,101561.78
2023-04-05T16:46:13.811Z,101551.28
2023-04-05T16:48:41.008Z,101559.75
2023-04-05T16:51:07.545Z,101556.59
2023-04-05T16:53:34.096Z,101547.47
2023-04-05T16:56:00.642Z,101540.25
2023-04-05T16:58:27.142Z,101549.88
2023-04-05T17:00:58.614Z,101537.28
2023-04-05T17:03:25.762Z,101541.72
2023-04-05T17:05:52.466Z,101539.00
2023-04-05T17:08:18.954Z,101537.22
2023-04-05T17:10:45.357Z,101533.00
2023-04-05T17:13:11.739Z,101536.28
2023-04-05T17:15:38.674Z,101529.88
2023-04-05T17:18:06.083Z,101536.84
2023-04-05T17:20:32.607Z,101541.09
2023-04-05T17:22:59.445Z,101532.28
2023-04-05T17:25:26.056Z,101533.00
2023-04-05T17:27:52.732Z,101534.78
2023-04-05T17:30:19.228Z,101533.50
2023-04-05T17:32:45.731Z,101533.63
2023-04-05T17:35:12.193Z,101530.00
2023-04-05T17:37:38.698Z,101527.63
2023-04-05T17:40:06.133Z,101535.88
2023-04-05T17:42:32.628Z,101535.16
2023-04-05T17:44:59.013Z,101533.66
2023-04-05T17:47:25.544Z,101530.38
2023-04-05T17:49:52.022Z,101529.28
2023-04-05T17:52:18.442Z,101534.00
2023-04-05T17:54:44.875Z,101532.69
2023-04-05T17:57:15.361Z,101532.56
2023-04-05T17:59:42.463Z,101530.94
2023-04-05T18:02:13.075Z,101530.91
2023-04-05T18:04:40.365Z,101524.75
2023-04-05T18:07:07.902Z,101530.56
2023-04-05T18:09:36.180Z,101525.28
2023-04-05T18:12:02.917Z,101535.13
2023-04-05T18:14:30.266Z,101543.47
2023-04-05T18:16:56.660Z,101546.16
2023-04-05T18:19:23.125Z,101538.81
2023-04-05T18:21:49.521Z,101547.59
2023-04-05T18:24:16.337Z,101541.69
2023-04-05T18:26:42.881Z,101551.31
2023-04-05T18:29:09.941Z,101545.56
2023-04-05T18:31:37.126Z,101548.25
2023-04-05T18:34:06.395Z,101552.81
2023-04-05T18:36:33.039Z,101555.16
2023-04-05T18:39:05.506Z,101558.88
2023-04-05T18:41:32.401Z,101562.72
2023-04-05T18:43:59.230Z,101553.41
2023-04-05T18:46:26.074Z,101566.53
2023-04-05T18:48:54.767Z,101561.56
2023-04-05T18:51:22.718Z,101556.84
2023-04-05T18:53:49.898Z,101572.84
2023-04-05T18:56:16.529Z,101562.69
2023-04-05T18:58:44.255Z,101560.44
2023-04-05T19:01:14.166Z,101563.00
2023-04-05T19:03:41.341Z,101572.34
2023-04-05T19:06:07.813Z,101565.91
2023-04-05T19:08:34.201Z,101570.41
2023-04-05T19:11:00.866Z,101568.22
2023-04-05T19:13:27.611Z,101570.53
2023-04-05T19:15:54.163Z,101572.22
2023-04-05T19:18:22.946Z,101573.50
2023-04-05T19:20:53.336Z,101577.19
2023-04-05T19:23:19.765Z,101578.78
2023-04-05T19:25:46.298Z,101574.81
2023-04-05T19:28:12.852Z,101583.84
2023-04-05T19:30:40.499Z,101579.72
2023-04-05T19:33:07.410Z,101579.38
2023-04-05T19:35:34.030Z,101585.22
2023-04-05T19:38:00.638Z,101580.03
2023-04-05T19:40:31.293Z,101581.13
2023-04-05T19:43:03.835Z,101587.41
2023-04-05T19:45:32.544Z,101580.81
2023-04-05T19:48:01.342Z,101592.44
2023-04-05T19:50:36.290Z,101591.81
2023-04-05T19:53:07.371Z,101583.78
2023-04-05T19:55:36.553Z,101576.16
2023-04-05T19:58:09.948Z,101580.97
2023-04-05T20:00:55.394Z,101578.09
2023-04-05T20:03:33.728Z,101569.78
2023-04-05T20:06:17.082Z,101579.75
2023-04-05T20:08:46.250Z,101567.78
2023-04-05T20:11:21.937Z,101574.03
2023-04-05T20:13:51.046Z,101576.09
2023-04-05T20:16:18.490Z,101572.81
2023-04-05T20:18:46.897Z,101571.56
2023-04-05T20:21:14.658Z,101561.47
2023-04-05T20:23:43.422Z,101567.66
2023-04-05T20:26:17.488Z,101560.84
2023-04-05T20:28:54.929Z,101578.44
2023-04-05T20:31:28.290Z,101576.63
2023-04-05T20:34:19.456Z,101568.97
2023-04-05T20:36:56.657Z,101572.09
2023-04-05T20:39:23.794Z,101571.47
2023-04-05T20:41:50.373Z,101567.53
2023-04-05T20:44:16.868Z,101569.44
2023-04-05T20:46:43.411Z,101562.00
2023-04-05T20:49:10.201Z,101565.50
2023-04-05T20:51:38.433Z,101563.47
2023-04-05T20:54:05.663Z,101556.03
2023-04-05T20:56:32.065Z,101551.25
2023-04-05T20:58:58.501Z,101557.47
2023-04-05T21:01:25.024Z,101551.69
2023-04-05T21:03:53.285Z,101552.31
2023-04-05T21:06:19.756Z,101551.06
2023-04-05T21:08:46.234Z,101546.09
2023-04-05T21:11:12.780Z,101546.09
2023-04-05T21:13:41.611Z,101539.50
2023-04-05T21:16:08.087Z,101546.09
2023-04-05T21:18:34.586Z,101550.03
2023-04-05T21:21:01.909Z,101542.38
2023-04-05T21:23:29.066Z,101545.88
2023-04-05T21:25:56.960Z,101538.63
2023-04-05T21:28:25.006Z,101530.34
2023-04-05T21:30:51.954Z,101537.59
2023-04-05T21:33:18.970Z,101540.25
2023-04-05T21:35:45.468Z,101544.81
2023-04-05T21:38:14.354Z,101541.91
2023-04-05T21:40:42.430Z,101538.34
2023-04-05T21:43:08.901Z,101531.75
2023-04-05T21:45:35.405Z,101528.66
2023-04-05T21:48:01.993Z,101536.69
2023-04-05T21:50:28.486Z,101530.06
2023-04-05T21:52:55.184Z,101530.63
2023-04-05T21:55:21.596Z,101532.06
2023-04-05T21:57:47.997Z,101526.28
2023-04-05T22:00:15.315Z,101528.53
2023-04-05T22:02:41.908Z,101531.84
2023-04-05T22:05:08.939Z,101531.00
2023-04-05T22:07:35.848Z,101529.09
2023-04-05T22:10:07.436Z,101527.41
2023-04-05T22:12:34.805Z,101527.88
2023-04-05T22:15:04.092Z,101530.50
2023-04-05T22:17:30.896Z,101523.91
2023-04-05T22:19:57.520Z,101528.41
2023-04-05T22:22:24.071Z,101528.00
2023-04-05T22:24:50.739Z,101524.22
2023-04-05T22:27:18.046Z,101530.78
2023-04-05T22:29:44.478Z,101521.72
2023-04-05T22:32:11.459Z,101531.63
2023-04-05T22:34:37.893Z,101511.56
2023-04-05T22:37:04.354Z,101514.47
2023-04-05T22:39:31.165Z,101511.19
2023-04-05T22:41:57.661Z,101527.66
2023-04-05T22:44:25.229Z,101520.84
2023-04-05T22:46:51.852Z,101523.28
2023-04-05T22:49:18.299Z,101522.88
2023-04-05T22:51:44.717Z,101529.28
2023-04-05T22:54:11.330Z,101521.00
2023-04-05T22:56:37.763Z,101515.41
2023-04-05T22:59:04.284Z,101514.78
2023-04-05T23:01:31.114Z,101513.94
2023-04-05T23:03:57.563Z,101507.56
2023-04-05T23:06:23.975Z,101506.31
2023-04-05T23:08:50.426Z,101496.56
2023-04-05T23:11:16.839Z,101497.00
2023-04-05T23:13:43.308Z,101493.06
2023-04-05T23:16:10.084Z,101485.41
2023-04-05T23:18:36.817Z,101487.84
2023-04-05T23:21:03.496Z,101488.22
2023-04-05T23:23:30.100Z,101487.59
2023-04-05T23:25:56.531Z,101484.31
2023-04-05T23:28:22.999Z,101483.97
2023-04-05T23:30:49.537Z,101483.72
2023-04-05T23:33:16.208Z,101479.56
2023-04-05T23:35:42.860Z,101477.69
2023-04-05T23:38:09.394Z,101478.66
2023-04-05T23:40:35.776Z,101485.88
2023-04-05T23:43:02.166Z,101477.00
2023-04-05T23:45:28.974Z,101473.25
2023-04-05T23:47:55.632Z,101471.59
2023-04-05T23:50:22.303Z,101466.31
2023-04-05T23:52:49.056Z,101474.47
2023-04-05T23:55:15.637Z,101466.44
2023-04-05T23:57:42.140Z,101464.53
